createdAt,value
2022-11-19T00:00:13.487Z,0.00
2022-11-19T00:01:13.542Z,0.00
2022-11-19T00:02:13.504Z,0.00
2022-11-19T00:03:13.676Z,0.00
2022-11-19T00:04:13.743Z,0.00
2022-11-19T00:05:13.685Z,0.00
2022-11-19T00:06:13.548Z,0.00
2022-11-19T00:07:13.497Z,0.00
2022-11-19T00:08:13.361Z,0.00
2022-11-19T00:09:13.250Z,0.00
2022-11-19T00:10:13.136Z,0.00
2022-11-19T00:11:13.393Z,0.00
2022-11-19T00:12:13.383Z,0.00
2022-11-19T00:13:13.673Z,0.00
2022-11-19T00:14:13.739Z,0.00
2022-11-19T00:15:13.833Z,0.00
2022-11-19T00:16:14.117Z,0.00
2022-11-19T00:17:13.010Z,0.00
2022-11-19T00:18:12.975Z,0.00
2022-11-19T00:19:12.994Z,0.00
2022-11-19T00:20:12.900Z,0.00
2022-11-19T00:21:12.721Z,0.00
2022-11-19T00:22:13.793Z,0.00
2022-11-19T00:23:13.833Z,0.00
2022-11-19T00:24:13.771Z,0.00
2022-11-19T00:25:13.773Z,0.00
2022-11-19T00:26:13.873Z,0.00
2022-11-19T00:27:13.840Z,0.00
2022-11-19T00:28:13.863Z,0.00
2022-11-19T00:29:17.916Z,0.00
2022-11-19T00:30:32.650Z,0.00
2022-11-19T00:31:13.986Z,0.00
2022-11-19T00:32:13.362Z,0.00
2022-11-19T00:33:13.302Z,0.00
2022-11-19T00:34:13.442Z,0.00
2022-11-19T00:35:13.531Z,0.00
2022-11-19T00:36:13.702Z,0.00
2022-11-19T00:37:13.742Z,0.00
2022-11-19T00:38:14.863Z,0.00
2022-11-19T00:39:13.838Z,0.00
2022-11-19T00:40:14.126Z,0.00
2022-11-19T00:41:13.044Z,0.00
2022-11-19T00:42:13.407Z,0.00
2022-11-19T00:43:13.390Z,0.00
2022-11-19T00:44:13.495Z,0.00
2022-11-19T00:45:13.454Z,0.00
2022-11-19T00:46:13.429Z,0.00
2022-11-19T00:47:13.711Z,0.00
2022-11-19T00:48:14.907Z,0.00
2022-11-19T00:49:18.623Z,0.00
2022-11-19T00:50:13.871Z,0.00
2022-11-19T00:51:13.793Z,0.00
2022-11-19T00:52:13.723Z,0.00
2022-11-19T00:53:13.655Z,0.00
2022-11-19T00:54:13.907Z,0.00
2022-11-19T00:55:12.773Z,0.00
2022-11-19T00:56:13.700Z,0.00
2022-11-19T00:57:13.842Z,0.00
2022-11-19T00:58:13.744Z,0.00
2022-11-19T00:59:13.836Z,0.00
2022-11-19T01:00:13.876Z,0.00
2022-11-19T01:01:13.871Z,0.00
2022-11-19T01:02:13.517Z,0.00
2022-11-19T01:03:13.608Z,0.00
2022-11-19T01:04:13.848Z,0.00
2022-11-19T01:05:13.739Z,0.00
2022-11-19T01:06:17.824Z,0.00
2022-11-19T01:07:18.274Z,0.00
2022-11-19T01:08:13.308Z,0.00
2022-11-19T01:09:18.813Z,0.00
2022-11-19T01:10:13.287Z,0.00
2022-11-19T01:11:13.436Z,0.00
2022-11-19T01:12:13.557Z,0.00
2022-11-19T01:13:13.965Z,0.00
2022-11-19T01:14:12.934Z,0.00
2022-11-19T01:15:13.244Z,0.00
2022-11-19T01:16:13.099Z,0.00
2022-11-19T01:17:13.426Z,0.00
2022-11-19T01:18:13.454Z,0.00
2022-11-19T01:19:13.596Z,0.00
2022-11-19T01:20:14.048Z,0.00
2022-11-19T01:21:12.982Z,0.00
2022-11-19T01:22:14.099Z,0.00
2022-11-19T01:23:13.031Z,0.00
2022-11-19T01:24:13.111Z,0.00
2022-11-19T01:25:13.099Z,0.00
2022-11-19T01:26:13.035Z,0.00
2022-11-19T01:27:12.943Z,0.00
2022-11-19T01:28:12.923Z,0.00
2022-11-19T01:29:12.842Z,0.00
2022-11-19T01:30:13.859Z,0.00
2022-11-19T01:31:14.006Z,0.00
2022-11-19T01:32:12.912Z,0.00
2022-11-19T01:33:13.849Z,0.00
2022-11-19T01:34:13.719Z,0.00
2022-11-19T01:35:13.568Z,0.00
2022-11-19T01:36:13.419Z,0.00
2022-11-19T01:37:13.306Z,0.00
2022-11-19T01:38:13.273Z,0.00
2022-11-19T01:39:13.182Z,0.00
2022-11-19T01:40:13.082Z,0.00
2022-11-19T01:41:13.059Z,0.00
2022-11-19T01:42:13.072Z,0.00
2022-11-19T01:43:13.103Z,0.00
2022-11-19T01:44:13.234Z,0.00
2022-11-19T01:45:13.109Z,0.00
2022-11-19T01:46:13.251Z,0.00
2022-11-19T01:47:13.407Z,0.00
2022-11-19T01:48:13.247Z,0.00
2022-11-19T01:49:13.547Z,0.00
2022-11-19T01:50:13.586Z,0.00
2022-11-19T01:51:13.642Z,0.00
2022-11-19T01:52:14.143Z,0.00
2022-11-19T01:53:13.327Z,0.00
2022-11-19T01:54:13.340Z,0.00
2022-11-19T01:55:13.491Z,0.00
2022-11-19T01:56:13.418Z,0.00
2022-11-19T01:57:13.329Z,0.00
2022-11-19T01:58:13.252Z,0.00
2022-11-19T01:59:13.558Z,0.00
2022-11-19T02:00:13.426Z,0.00
2022-11-19T02:01:13.705Z,0.00
2022-11-19T02:02:13.734Z,0.00
2022-11-19T02:03:13.561Z,0.00
2022-11-19T02:04:13.395Z,0.00
2022-11-19T02:05:13.316Z,0.00
2022-11-19T02:06:13.199Z,0.00
2022-11-19T02:07:13.525Z,0.00
2022-11-19T02:08:13.670Z,0.00
2022-11-19T02:09:13.667Z,0.00
2022-11-19T02:10:13.571Z,0.00
2022-11-19T02:11:13.611Z,0.00
2022-11-19T02:12:14.088Z,0.00
2022-11-19T02:13:13.410Z,0.00
2022-11-19T02:14:13.418Z,0.00
2022-11-19T02:15:13.370Z,0.00
2022-11-19T02:16:13.346Z,0.00
2022-11-19T02:17:13.399Z,0.00
2022-11-19T02:18:13.407Z,0.00
2022-11-19T02:19:13.322Z,0.00
2022-11-19T02:20:13.507Z,0.00
2022-11-19T02:21:13.299Z,0.00
2022-11-19T02:22:13.180Z,0.00
2022-11-19T02:23:13.029Z,0.00
2022-11-19T02:24:13.118Z,0.00
2022-11-19T02:25:13.120Z,0.00
2022-11-19T02:26:14.201Z,0.00
2022-11-19T02:27:13.722Z,0.00
2022-11-19T02:28:13.560Z,0.00
2022-11-19T02:29:13.432Z,0.00
2022-11-19T02:30:13.513Z,0.00
2022-11-19T02:31:13.532Z,0.00
2022-11-19T02:32:13.338Z,0.00
2022-11-19T02:33:13.447Z,0.00
2022-11-19T02:34:13.571Z,0.00
2022-11-19T02:35:13.479Z,0.00
2022-11-19T02:36:13.431Z,0.00
2022-11-19T02:37:13.343Z,0.00
2022-11-19T02:38:13.244Z,0.00
2022-11-19T02:39:13.151Z,0.00
2022-11-19T02:40:13.059Z,0.00
2022-11-19T02:41:12.993Z,0.00
2022-11-19T02:42:12.917Z,0.00
2022-11-19T02:43:12.712Z,0.00
2022-11-19T02:44:13.673Z,0.00
2022-11-19T02:45:13.941Z,0.00
2022-11-19T02:46:12.900Z,0.00
2022-11-19T02:47:12.917Z,0.00
2022-11-19T02:48:13.248Z,0.00
2022-11-19T02:49:13.054Z,0.00
2022-11-19T02:50:12.925Z,0.00
2022-11-19T02:51:13.090Z,0.00
2022-11-19T02:52:12.948Z,0.00
2022-11-19T02:53:12.987Z,0.00
2022-11-19T02:54:12.904Z,0.00
2022-11-19T02:55:12.841Z,0.00
2022-11-19T02:56:14.044Z,0.00
2022-11-19T02:57:12.977Z,0.00
2022-11-19T02:58:13.008Z,0.00
2022-11-19T02:59:13.175Z,0.00
2022-11-19T03:00:13.084Z,0.00
2022-11-19T03:01:13.024Z,0.00
2022-11-19T03:02:12.925Z,0.00
2022-11-19T03:03:13.254Z,0.00
2022-11-19T03:04:13.096Z,0.00
2022-11-19T03:05:12.993Z,0.00
2022-11-19T03:06:12.849Z,0.00
2022-11-19T03:07:13.690Z,0.00
2022-11-19T03:08:13.509Z,0.00
2022-11-19T03:09:13.763Z,0.00
2022-11-19T03:10:13.678Z,0.00
2022-11-19T03:11:13.610Z,0.00
2022-11-19T03:12:13.818Z,0.00
2022-11-19T03:13:14.110Z,0.00
2022-11-19T03:14:13.237Z,0.00
2022-11-19T03:15:13.168Z,0.00
2022-11-19T03:16:12.975Z,0.00
2022-11-19T03:17:12.773Z,0.00
2022-11-19T03:18:13.992Z,0.00
2022-11-19T03:19:12.879Z,0.00
2022-11-19T03:20:13.787Z,0.00
2022-11-19T03:21:13.870Z,0.00
2022-11-19T03:22:13.849Z,0.00
2022-11-19T03:23:14.181Z,0.00
2022-11-19T03:24:13.114Z,0.00
2022-11-19T03:25:13.208Z,0.00
2022-11-19T03:26:13.130Z,0.00
2022-11-19T03:27:13.397Z,0.00
2022-11-19T03:28:13.279Z,0.00
2022-11-19T03:29:13.363Z,0.00
2022-11-19T03:30:13.352Z,0.00
2022-11-19T03:31:13.509Z,0.00
2022-11-19T03:32:13.740Z,0.00
2022-11-19T03:33:13.959Z,0.00
2022-11-19T03:34:13.478Z,0.00
2022-11-19T03:35:13.549Z,0.00
2022-11-19T03:36:13.494Z,0.00
2022-11-19T03:37:13.708Z,0.00
2022-11-19T03:38:13.701Z,0.00
2022-11-19T03:39:13.835Z,0.00
2022-11-19T03:40:13.816Z,0.00
2022-11-19T03:41:13.869Z,0.00
2022-11-19T03:42:14.151Z,0.00
2022-11-19T03:43:13.476Z,0.00
2022-11-19T03:44:13.758Z,0.00
2022-11-19T03:45:13.802Z,0.00
2022-11-19T03:46:13.674Z,0.00
2022-11-19T03:47:13.672Z,0.00
2022-11-19T03:48:15.093Z,0.00
2022-11-19T03:49:13.053Z,0.00
2022-11-19T03:50:12.967Z,0.00
2022-11-19T03:51:12.928Z,0.00
2022-11-19T03:52:12.738Z,0.00
2022-11-19T03:53:13.590Z,0.00
2022-11-19T03:54:13.516Z,0.00
2022-11-19T03:55:13.502Z,0.00
2022-11-19T03:56:13.385Z,0.00
2022-11-19T03:57:13.335Z,0.00
2022-11-19T03:58:13.581Z,0.00
2022-11-19T03:59:13.805Z,0.00
2022-11-19T04:00:13.730Z,0.00
2022-11-19T04:01:13.721Z,0.00
2022-11-19T04:02:14.008Z,0.00
2022-11-19T04:03:13.474Z,0.00
2022-11-19T04:04:13.781Z,0.00
2022-11-19T04:05:13.884Z,0.00
2022-11-19T04:06:13.925Z,0.00
2022-11-19T04:07:13.792Z,0.00
2022-11-19T04:08:13.695Z,0.00
2022-11-19T04:09:13.696Z,0.00
2022-11-19T04:10:13.551Z,0.00
2022-11-19T04:11:14.598Z,0.00
2022-11-19T04:12:13.455Z,0.00
2022-11-19T04:13:13.355Z,0.00
2022-11-19T04:14:13.230Z,0.00
2022-11-19T04:15:13.174Z,0.00
2022-11-19T04:16:13.075Z,0.00
2022-11-19T04:17:13.010Z,0.00
2022-11-19T04:18:12.950Z,0.00
2022-11-19T04:19:12.843Z,0.00
2022-11-19T04:20:13.766Z,0.00
2022-11-19T04:21:13.824Z,0.00
2022-11-19T04:22:13.746Z,0.00
2022-11-19T04:23:14.879Z,0.00
2022-11-19T04:24:14.566Z,0.00
2022-11-19T04:25:13.596Z,0.00
2022-11-19T04:26:13.797Z,0.00
2022-11-19T04:27:13.949Z,0.00
2022-11-19T04:28:12.871Z,0.00
2022-11-19T04:29:13.832Z,0.00
2022-11-19T04:30:13.807Z,0.00
2022-11-19T04:31:17.851Z,0.00
2022-11-19T04:32:13.317Z,0.00
2022-11-19T04:33:13.335Z,0.00
2022-11-19T04:34:13.215Z,0.00
2022-11-19T04:35:13.245Z,0.00
2022-11-19T04:36:13.148Z,0.00
2022-11-19T04:37:13.195Z,0.00
2022-11-19T04:38:13.265Z,0.00
2022-11-19T04:39:13.350Z,0.00
2022-11-19T04:40:13.176Z,0.00
2022-11-19T04:41:13.153Z,0.00
2022-11-19T04:42:13.294Z,0.00
2022-11-19T04:43:13.363Z,0.00
2022-11-19T04:44:13.483Z,0.00
2022-11-19T04:45:13.479Z,0.00
2022-11-19T04:46:13.523Z,0.00
2022-11-19T04:47:13.687Z,0.00
2022-11-19T04:48:13.590Z,0.00
2022-11-19T04:49:13.370Z,0.00
2022-11-19T04:50:13.583Z,0.00
2022-11-19T04:51:13.488Z,0.00
2022-11-19T04:52:13.380Z,0.00
2022-11-19T04:53:13.255Z,0.00
2022-11-19T04:54:13.205Z,0.00
2022-11-19T04:55:13.110Z,0.00
2022-11-19T04:56:13.060Z,0.00
2022-11-19T04:57:12.999Z,0.00
2022-11-19T04:58:12.892Z,0.00
2022-11-19T04:59:12.932Z,0.00
2022-11-19T05:00:13.143Z,0.00
2022-11-19T05:01:13.118Z,0.00
2022-11-19T05:02:13.051Z,0.00
2022-11-19T05:03:13.042Z,0.00
2022-11-19T05:04:13.107Z,0.00
2022-11-19T05:05:13.265Z,0.00
2022-11-19T05:06:13.324Z,0.00
2022-11-19T05:07:13.356Z,0.00
2022-11-19T05:08:13.716Z,0.00
2022-11-19T05:09:13.502Z,0.00
2022-11-19T05:10:13.407Z,0.00
2022-11-19T05:11:13.315Z,0.00
2022-11-19T05:12:13.216Z,0.00
2022-11-19T05:13:13.247Z,0.00
2022-11-19T05:14:13.135Z,0.00
2022-11-19T05:15:13.270Z,0.00
2022-11-19T05:16:13.078Z,0.00
2022-11-19T05:17:13.171Z,0.00
2022-11-19T05:18:13.445Z,0.00
2022-11-19T05:19:13.352Z,0.00
2022-11-19T05:20:13.347Z,0.00
2022-11-19T05:21:13.382Z,0.00
2022-11-19T05:22:13.709Z,0.00
2022-11-19T05:23:14.002Z,0.00
2022-11-19T05:24:12.942Z,0.00
2022-11-19T05:25:12.924Z,0.00
2022-11-19T05:26:13.067Z,0.00
2022-11-19T05:27:13.000Z,0.00
2022-11-19T05:28:12.936Z,0.00
2022-11-19T05:29:12.973Z,0.00
2022-11-19T05:30:12.883Z,0.00
2022-11-19T05:31:13.878Z,0.00
2022-11-19T05:32:13.893Z,0.00
2022-11-19T05:33:14.293Z,0.00
2022-11-19T05:34:13.360Z,0.00
2022-11-19T05:35:13.276Z,0.00
2022-11-19T05:36:13.839Z,0.00
2022-11-19T05:37:13.873Z,0.00
2022-11-19T05:38:13.856Z,0.00
2022-11-19T05:39:20.289Z,0.00
2022-11-19T05:40:13.980Z,0.00
2022-11-19T05:41:12.902Z,0.00
2022-11-19T05:42:12.799Z,0.00
2022-11-19T05:43:13.781Z,0.00
2022-11-19T05:44:13.808Z,0.00
2022-11-19T05:45:13.916Z,0.00
2022-11-19T05:46:12.776Z,0.00
2022-11-19T05:47:13.684Z,0.00
2022-11-19T05:48:13.675Z,0.00
2022-11-19T05:49:13.836Z,0.00
2022-11-19T05:50:13.597Z,0.00
2022-11-19T05:51:13.682Z,0.00
2022-11-19T05:52:13.707Z,0.00
2022-11-19T05:53:13.622Z,0.00
2022-11-19T05:54:13.946Z,0.00
2022-11-19T05:55:13.010Z,0.00
2022-11-19T05:56:13.060Z,0.00
2022-11-19T05:57:12.966Z,0.00
2022-11-19T05:58:12.965Z,0.00
2022-11-19T05:59:12.938Z,0.00
2022-11-19T06:00:12.995Z,0.00
2022-11-19T06:01:13.002Z,0.00
2022-11-19T06:02:13.508Z,0.00
2022-11-19T06:03:13.873Z,0.00
2022-11-19T06:04:12.852Z,0.00
2022-11-19T06:05:13.966Z,0.00
2022-11-19T06:06:12.986Z,0.00
2022-11-19T06:07:13.114Z,0.00
2022-11-19T06:08:13.013Z,0.00
2022-11-19T06:09:12.976Z,0.00
2022-11-19T06:10:13.124Z,0.00
2022-11-19T06:11:13.093Z,0.00
2022-11-19T06:12:13.097Z,0.00
2022-11-19T06:13:13.031Z,0.00
2022-11-19T06:14:13.008Z,0.00
2022-11-19T06:15:51.334Z,0.00
2022-11-19T06:16:17.664Z,0.00
2022-11-19T06:17:13.850Z,0.00
2022-11-19T06:18:13.851Z,0.00
2022-11-19T06:19:13.937Z,0.00
2022-11-19T06:20:18.287Z,0.77
2022-11-19T06:21:13.307Z,0.77
2022-11-19T06:22:34.106Z,0.77
2022-11-19T06:23:15.026Z,0.77
2022-11-19T06:24:12.978Z,1.53
2022-11-19T06:25:12.913Z,1.53
2022-11-19T06:26:12.798Z,1.53
2022-11-19T06:27:38.068Z,2.29
2022-11-19T06:28:13.387Z,3.06
2022-11-19T06:29:33.778Z,3.06
2022-11-19T06:30:43.121Z,3.82
2022-11-19T06:31:13.391Z,4.59
2022-11-19T06:32:32.553Z,6.12
2022-11-19T06:33:57.705Z,6.88
2022-11-19T06:34:17.007Z,8.41
2022-11-19T06:35:14.526Z,9.18
2022-11-19T06:36:13.523Z,10.71
2022-11-19T06:37:34.414Z,12.24
2022-11-19T06:38:16.904Z,13.77
2022-11-19T06:39:12.848Z,16.83
2022-11-19T06:40:14.146Z,19.89
2022-11-19T06:41:13.137Z,21.42
2022-11-19T06:42:18.467Z,24.48
2022-11-19T06:43:13.418Z,27.54
2022-11-19T06:44:13.591Z,30.60
2022-11-19T06:45:33.743Z,36.72
2022-11-19T06:46:13.800Z,39.78
2022-11-19T06:47:13.651Z,42.84
2022-11-19T06:48:13.555Z,48.96
2022-11-19T06:49:19.697Z,61.20
2022-11-19T06:50:13.267Z,67.32
2022-11-19T06:51:13.264Z,85.68
2022-11-19T06:53:13.383Z,97.92
2022-11-19T06:54:13.330Z,97.92
2022-11-19T06:55:13.350Z,110.16
2022-11-19T06:56:13.220Z,110.16
2022-11-19T06:57:13.138Z,110.16
2022-11-19T06:58:40.282Z,110.16
2022-11-19T06:59:12.966Z,122.40
2022-11-19T07:00:13.182Z,122.40
2022-11-19T07:01:13.367Z,122.40
2022-11-19T07:02:14.498Z,110.16
2022-11-19T07:03:12.926Z,122.40
2022-11-19T07:04:13.059Z,122.40
2022-11-19T07:05:13.116Z,134.64
2022-11-19T07:06:12.960Z,134.64
2022-11-19T07:07:12.822Z,146.88
2022-11-19T07:08:13.967Z,159.12
2022-11-19T07:09:13.155Z,159.12
2022-11-19T07:10:13.124Z,171.36
2022-11-19T07:11:13.130Z,195.84
2022-11-19T07:12:13.081Z,220.32
2022-11-19T07:13:13.704Z,220.32
2022-11-19T07:14:13.605Z,244.80
2022-11-19T07:15:13.439Z,244.80
2022-11-19T07:16:13.555Z,269.28
2022-11-19T07:17:33.729Z,269.28
2022-11-19T07:18:13.669Z,269.28
2022-11-19T07:19:13.740Z,293.76
2022-11-19T07:20:13.735Z,318.24
2022-11-19T07:21:30.792Z,342.72
2022-11-19T07:22:45.318Z,367.20
2022-11-19T07:23:13.972Z,391.68
2022-11-19T07:24:13.371Z,440.64
2022-11-19T07:25:13.270Z,440.64
2022-11-19T07:26:54.973Z,440.64
2022-11-19T07:27:13.061Z,489.60
2022-11-19T07:28:18.031Z,489.60
2022-11-19T07:29:13.038Z,538.56
2022-11-19T07:30:12.944Z,636.48
2022-11-19T07:31:23.089Z,685.44
2022-11-19T07:32:17.993Z,734.40
2022-11-19T07:33:39.305Z,783.36
2022-11-19T07:34:14.541Z,881.28
2022-11-19T07:35:13.520Z,881.28
2022-11-19T07:36:18.126Z,979.20
2022-11-19T07:37:13.801Z,979.20
2022-11-19T07:38:13.807Z,1175.04
2022-11-19T07:39:13.767Z,1175.04
2022-11-19T07:40:16.832Z,1272.96
2022-11-19T07:41:13.970Z,1272.96
2022-11-19T07:42:12.849Z,1272.96
2022-11-19T07:43:14.033Z,1272.96
2022-11-19T07:44:12.956Z,1272.96
2022-11-19T07:45:13.013Z,1370.88
2022-11-19T07:46:12.901Z,1370.88
2022-11-19T07:47:12.823Z,1468.80
2022-11-19T07:48:13.700Z,1468.80
2022-11-19T07:49:13.575Z,1468.80
2022-11-19T07:50:13.485Z,1566.72
2022-11-19T07:51:13.350Z,1566.72
2022-11-19T07:52:13.450Z,1762.56
2022-11-19T07:54:14.877Z,1762.56
2022-11-19T07:55:18.500Z,1762.56
2022-11-19T07:56:33.475Z,1762.56
2022-11-19T07:57:30.237Z,1762.56
2022-11-19T07:58:23.533Z,1958.40
2022-11-19T07:59:13.565Z,1958.40
2022-11-19T08:00:33.027Z,2154.24
2022-11-19T08:01:33.152Z,2154.24
2022-11-19T08:02:18.815Z,2154.24
2022-11-19T08:03:13.188Z,2154.24
2022-11-19T08:04:36.484Z,2350.08
2022-11-19T08:05:13.374Z,2350.08
2022-11-19T08:07:03.199Z,2545.92
2022-11-19T08:07:14.217Z,2545.92
2022-11-19T08:08:13.380Z,2545.92
2022-11-19T08:09:13.267Z,2741.76
2022-11-19T08:10:13.199Z,2937.60
2022-11-19T08:11:34.052Z,2937.60
2022-11-19T08:12:21.482Z,3133.44
2022-11-19T08:13:13.640Z,3133.44
2022-11-19T08:14:13.590Z,3133.44
2022-11-19T08:15:28.784Z,3133.44
2022-11-19T08:16:13.983Z,3133.44
2022-11-19T08:17:12.817Z,2937.60
2022-11-19T08:18:27.208Z,2937.60
2022-11-19T08:19:14.671Z,3133.44
2022-11-19T08:20:13.743Z,2937.60
2022-11-19T08:21:14.016Z,3133.44
2022-11-19T08:22:13.159Z,3133.44
2022-11-19T08:23:13.324Z,3133.44
2022-11-19T08:24:13.678Z,3133.44
2022-11-19T08:25:13.977Z,3525.12
2022-11-19T08:26:13.166Z,3525.12
2022-11-19T08:27:13.539Z,3525.12
2022-11-19T08:28:13.512Z,3916.80
2022-11-19T08:29:16.482Z,3525.12
2022-11-19T08:30:13.631Z,3525.12
2022-11-19T08:31:13.855Z,3525.12
2022-11-19T08:32:24.304Z,3525.12
2022-11-19T08:33:13.603Z,3525.12
2022-11-19T08:34:13.425Z,3916.80
2022-11-19T08:35:13.613Z,4308.48
2022-11-19T08:36:13.614Z,4308.48
2022-11-19T08:37:14.146Z,4308.48
2022-11-19T08:39:37.057Z,3916.80
2022-11-19T08:40:13.270Z,3916.80
2022-11-19T08:41:52.253Z,3916.80
2022-11-19T08:42:14.668Z,3916.80
2022-11-19T08:43:24.151Z,3916.80
2022-11-19T08:44:13.369Z,3916.80
2022-11-19T08:45:23.307Z,3916.80
2022-11-19T08:46:13.493Z,3916.80
2022-11-19T08:47:13.499Z,3916.80
2022-11-19T08:48:13.682Z,3916.80
2022-11-19T08:49:27.479Z,3916.80
2022-11-19T08:50:13.354Z,4308.48
2022-11-19T08:51:45.901Z,4308.48
2022-11-19T08:52:13.508Z,4308.48
2022-11-19T08:53:13.716Z,4308.48
2022-11-19T08:54:13.614Z,4308.48
2022-11-19T08:55:14.316Z,4700.16
2022-11-19T08:56:17.910Z,4700.16
2022-11-19T08:57:13.521Z,4700.16
2022-11-19T08:58:13.792Z,4700.16
2022-11-19T08:59:13.883Z,5091.84
2022-11-19T09:00:12.761Z,5091.84
2022-11-19T09:01:14.294Z,5091.84
2022-11-19T09:02:13.159Z,5483.52
2022-11-19T09:03:13.090Z,5483.52
2022-11-19T09:04:12.941Z,5483.52
2022-11-19T09:05:14.724Z,5483.52
2022-11-19T09:06:51.272Z,5875.20
2022-11-19T09:07:13.230Z,5875.20
2022-11-19T09:08:14.034Z,5875.20
2022-11-19T09:09:13.387Z,5875.20
2022-11-19T09:10:13.338Z,5875.20
2022-11-19T09:11:13.245Z,6266.88
2022-11-19T09:12:13.078Z,6266.88
2022-11-19T09:13:12.988Z,6266.88
2022-11-19T09:14:13.070Z,6266.88
2022-11-19T09:15:12.988Z,6266.88
2022-11-19T09:16:13.194Z,5875.20
2022-11-19T09:17:13.137Z,5875.20
2022-11-19T09:18:13.142Z,5875.20
2022-11-19T09:19:13.410Z,5875.20
2022-11-19T09:20:13.629Z,6266.88
2022-11-19T09:21:13.807Z,6266.88
2022-11-19T09:22:13.635Z,6266.88
2022-11-19T09:23:13.560Z,6266.88
2022-11-19T09:24:13.421Z,6266.88
2022-11-19T09:25:13.428Z,6266.88
2022-11-19T09:26:13.773Z,6266.88
2022-11-19T09:27:14.125Z,6266.88
2022-11-19T09:28:13.565Z,6266.88
2022-11-19T09:29:13.556Z,7050.24
2022-11-19T09:30:13.530Z,7050.24
2022-11-19T09:31:13.442Z,6266.88
2022-11-19T09:32:13.575Z,6266.88
2022-11-19T09:33:13.575Z,6266.88
2022-11-19T09:34:13.778Z,6266.88
2022-11-19T09:35:13.793Z,6266.88
2022-11-19T09:36:13.624Z,7050.24
2022-11-19T09:37:13.401Z,7050.24
2022-11-19T09:38:13.295Z,7050.24
2022-11-19T09:39:13.551Z,7050.24
2022-11-19T09:40:13.465Z,7050.24
2022-11-19T09:41:13.305Z,7050.24
2022-11-19T09:42:13.607Z,7050.24
2022-11-19T09:43:15.628Z,7050.24
2022-11-19T09:44:13.732Z,7833.60
2022-11-19T09:45:13.604Z,7050.24
2022-11-19T09:46:13.655Z,7833.60
2022-11-19T09:47:13.568Z,7050.24
2022-11-19T09:48:13.370Z,7050.24
2022-11-19T09:49:13.200Z,7050.24
2022-11-19T09:50:12.993Z,6266.88
2022-11-19T09:51:13.051Z,6266.88
2022-11-19T09:52:12.958Z,6266.88
2022-11-19T09:53:12.924Z,6266.88
2022-11-19T09:54:12.860Z,5875.20
2022-11-19T09:55:13.955Z,5483.52
2022-11-19T09:56:13.182Z,5483.52
2022-11-19T09:57:13.217Z,5875.20
2022-11-19T09:58:13.430Z,5875.20
2022-11-19T09:59:13.411Z,6266.88
2022-11-19T10:00:13.414Z,6266.88
2022-11-19T10:01:13.497Z,6266.88
2022-11-19T10:02:13.538Z,7050.24
2022-11-19T10:03:13.663Z,7050.24
2022-11-19T10:04:14.013Z,7050.24
2022-11-19T10:05:12.998Z,7050.24
2022-11-19T10:06:13.116Z,7050.24
2022-11-19T10:07:13.262Z,7833.60
2022-11-19T10:08:13.441Z,7833.60
2022-11-19T10:09:13.358Z,7833.60
2022-11-19T10:10:13.334Z,7050.24
2022-11-19T10:11:13.225Z,7050.24
2022-11-19T10:12:13.058Z,7050.24
2022-11-19T10:13:13.085Z,7050.24
2022-11-19T10:14:13.386Z,7050.24
2022-11-19T10:15:13.407Z,7050.24
2022-11-19T10:16:13.533Z,7050.24
2022-11-19T10:17:13.623Z,7050.24
2022-11-19T10:18:13.513Z,7050.24
2022-11-19T10:19:13.648Z,7050.24
2022-11-19T10:20:14.058Z,7050.24
2022-11-19T10:21:12.979Z,7050.24
2022-11-19T10:22:12.808Z,7050.24
2022-11-19T10:23:13.802Z,7050.24
2022-11-19T10:24:13.769Z,7050.24
2022-11-19T10:25:13.718Z,6266.88
2022-11-19T10:26:13.760Z,6266.88
2022-11-19T10:27:13.547Z,6266.88
2022-11-19T10:28:13.469Z,7050.24
2022-11-19T10:29:13.441Z,7050.24
2022-11-19T10:30:13.376Z,7050.24
2022-11-19T10:31:13.318Z,7050.24
2022-11-19T10:32:13.415Z,7050.24
2022-11-19T10:33:13.514Z,7050.24
2022-11-19T10:34:13.341Z,7050.24
2022-11-19T10:35:13.238Z,7050.24
2022-11-19T10:36:13.386Z,7050.24
2022-11-19T10:37:13.591Z,7050.24
2022-11-19T10:38:13.580Z,7833.60
2022-11-19T10:39:13.828Z,7833.60
2022-11-19T10:40:14.123Z,7833.60
2022-11-19T10:41:12.981Z,8616.96
2022-11-19T10:42:13.036Z,8616.96
2022-11-19T10:43:13.354Z,7833.60
2022-11-19T10:44:13.311Z,7833.60
2022-11-19T10:45:13.288Z,7833.60
2022-11-19T10:46:13.348Z,7050.24
2022-11-19T10:47:13.252Z,6266.88
2022-11-19T10:48:13.178Z,6266.88
2022-11-19T10:49:13.031Z,5875.20
2022-11-19T10:50:12.957Z,5875.20
2022-11-19T10:51:13.036Z,6266.88
2022-11-19T10:52:12.940Z,6266.88
2022-11-19T10:53:12.771Z,6266.88
2022-11-19T10:54:13.747Z,7833.60
2022-11-19T10:55:13.624Z,7833.60
2022-11-19T10:56:13.543Z,8616.96
2022-11-19T10:57:13.434Z,9400.32
2022-11-19T10:58:13.385Z,10967.04
2022-11-19T10:59:13.442Z,10967.04
2022-11-19T11:00:13.358Z,12533.76
2022-11-19T11:01:13.405Z,12533.76
2022-11-19T11:02:13.373Z,11750.40
2022-11-19T11:03:13.271Z,10967.04
2022-11-19T11:04:13.511Z,10967.04
2022-11-19T11:05:13.525Z,10183.68
2022-11-19T11:06:13.644Z,10183.68
2022-11-19T11:07:18.740Z,8616.96
2022-11-19T11:08:13.830Z,7833.60
2022-11-19T11:09:13.640Z,7833.60
2022-11-19T11:10:13.524Z,7050.24
2022-11-19T11:11:13.464Z,7833.60
2022-11-19T11:12:13.366Z,7833.60
2022-11-19T11:13:13.302Z,7833.60
2022-11-19T11:14:13.254Z,7050.24
2022-11-19T11:15:13.282Z,7833.60
2022-11-19T11:16:13.586Z,9400.32
2022-11-19T11:17:13.782Z,9400.32
2022-11-19T11:18:13.992Z,10183.68
2022-11-19T11:19:13.374Z,10967.04
2022-11-19T11:20:13.360Z,12533.76
2022-11-19T11:21:13.337Z,12533.76
2022-11-19T11:22:13.375Z,17233.92
2022-11-19T11:23:13.416Z,17233.92
2022-11-19T11:24:13.486Z,14100.48
2022-11-19T11:25:13.360Z,14100.48
2022-11-19T11:26:13.285Z,9400.32
2022-11-19T11:27:13.346Z,8616.96
2022-11-19T11:28:13.925Z,9400.32
2022-11-19T11:29:12.934Z,8616.96
2022-11-19T11:30:12.848Z,7833.60
2022-11-19T11:31:13.693Z,7833.60
2022-11-19T11:32:13.787Z,8616.96
2022-11-19T11:33:13.726Z,8616.96
2022-11-19T11:34:13.573Z,9400.32
2022-11-19T11:35:19.514Z,9400.32
2022-11-19T11:36:13.473Z,9400.32
2022-11-19T11:37:13.397Z,9400.32
2022-11-19T11:38:13.306Z,9400.32
2022-11-19T11:39:13.189Z,9400.32
2022-11-19T11:40:13.110Z,10183.68
2022-11-19T11:42:02.402Z,10183.68
2022-11-19T11:42:17.549Z,10183.68
2022-11-19T11:43:13.044Z,10183.68
2022-11-19T11:44:13.019Z,10183.68
2022-11-19T11:45:12.969Z,9400.32
2022-11-19T11:46:13.075Z,9400.32
2022-11-19T11:47:13.077Z,9400.32
2022-11-19T11:48:13.382Z,10183.68
2022-11-19T11:49:13.784Z,10183.68
2022-11-19T11:50:13.881Z,10183.68
2022-11-19T11:51:13.279Z,10183.68
2022-11-19T11:52:13.271Z,9400.32
2022-11-19T11:53:13.172Z,9400.32
2022-11-19T11:54:17.826Z,9400.32
2022-11-19T11:55:13.230Z,9400.32
2022-11-19T11:56:13.515Z,8616.96
2022-11-19T11:57:13.529Z,8616.96
2022-11-19T11:58:13.799Z,8616.96
2022-11-19T11:59:13.689Z,8616.96
2022-11-19T12:00:13.748Z,8616.96
2022-11-19T12:01:15.894Z,8616.96
2022-11-19T12:02:14.070Z,8616.96
2022-11-19T12:03:13.097Z,9400.32
2022-11-19T12:04:13.103Z,9400.32
2022-11-19T12:05:13.234Z,9400.32
2022-11-19T12:06:13.096Z,9400.32
2022-11-19T12:07:13.120Z,8616.96
2022-11-19T12:08:13.388Z,8616.96
2022-11-19T12:09:13.677Z,8616.96
2022-11-19T12:10:14.070Z,9400.32
2022-11-19T12:11:13.457Z,9400.32
2022-11-19T12:12:13.392Z,9400.32
2022-11-19T12:13:13.687Z,9400.32
2022-11-19T12:14:13.654Z,9400.32
2022-11-19T12:15:13.709Z,10183.68
2022-11-19T12:16:13.651Z,10183.68
2022-11-19T12:17:13.910Z,9400.32
2022-11-19T12:18:13.436Z,9400.32
2022-11-19T12:19:13.664Z,8616.96
2022-11-19T12:20:13.721Z,8616.96
2022-11-19T12:21:13.987Z,8616.96
2022-11-19T12:22:13.019Z,8616.96
2022-11-19T12:23:13.151Z,8616.96
2022-11-19T12:24:13.245Z,8616.96
2022-11-19T12:25:13.352Z,9400.32
2022-11-19T12:26:13.746Z,8616.96
2022-11-19T12:27:13.839Z,8616.96
2022-11-19T12:28:14.055Z,8616.96
2022-11-19T12:29:13.240Z,8616.96
2022-11-19T12:30:13.158Z,8616.96
2022-11-19T12:31:13.384Z,9400.32
2022-11-19T12:32:13.461Z,9400.32
2022-11-19T12:33:13.560Z,8616.96
2022-11-19T12:34:13.805Z,8616.96
2022-11-19T12:35:13.741Z,8616.96
2022-11-19T12:36:14.261Z,7833.60
2022-11-19T12:37:13.433Z,7833.60
2022-11-19T12:38:13.745Z,7050.24
2022-11-19T12:39:13.811Z,7050.24
2022-11-19T12:40:14.337Z,7050.24
2022-11-19T12:41:13.763Z,7050.24
2022-11-19T12:42:13.965Z,7050.24
2022-11-19T12:43:12.777Z,7050.24
2022-11-19T12:44:13.721Z,6266.88
2022-11-19T12:45:13.712Z,6266.88
2022-11-19T12:46:14.034Z,6266.88